sensor_id;sensor_type;location;lat;lon;timestamp;P1;durP1;ratioP1;P2;durP2;ratioP2
72924;SDS011;61070;50.794;7.054;2023-01-29T00:01:55;66.30;;;30.30;;
72924;SDS011;61070;50.794;7.054;2023-01-29T00:04:21;58.15;;;29.58;;
72924;SDS011;61070;50.794;7.054;2023-01-29T00:06:46;56.03;;;27.33;;
72924;SDS011;61070;50.794;7.054;2023-01-29T00:09:11;55.97;;;29.55;;
72924;SDS011;61070;50.794;7.054;2023-01-29T00:11:38;64.40;;;28.85;;
72924;SDS011;61070;50.794;7.054;2023-01-29T00:14:04;53.20;;;27.88;;
72924;SDS011;61070;50.794;7.054;2023-01-29T00:16:30;58.90;;;28.25;;
72924;SDS011;61070;50.794;7.054;2023-01-29T00:18:55;55.13;;;28.20;;
72924;SDS011;61070;50.794;7.054;2023-01-29T00:21:21;61.17;;;28.02;;
72924;SDS011;61070;50.794;7.054;2023-01-29T00:23:47;57.97;;;28.73;;
72924;SDS011;61070;50.794;7.054;2023-01-29T00:26:13;57.35;;;27.08;;
72924;SDS011;61070;50.794;7.054;2023-01-29T00:28:39;67.40;;;30.83;;
72924;SDS011;61070;50.794;7.054;2023-01-29T00:33:33;51.72;;;22.15;;
72924;SDS011;61070;50.794;7.054;2023-01-29T00:36:01;60.30;;;28.25;;
72924;SDS011;61070;50.794;7.054;2023-01-29T00:38:30;59.30;;;28.38;;
72924;SDS011;61070;50.794;7.054;2023-01-29T00:40:56;62.50;;;26.73;;
72924;SDS011;61070;50.794;7.054;2023-01-29T00:43:40;61.58;;;28.67;;
72924;SDS011;61070;50.794;7.054;2023-01-29T00:46:34;70.55;;;30.48;;
72924;SDS011;61070;50.794;7.054;2023-01-29T00:48:59;62.25;;;28.55;;
72924;SDS011;61070;50.794;7.054;2023-01-29T00:51:25;59.03;;;26.98;;
72924;SDS011;61070;50.794;7.054;2023-01-29T00:53:50;61.28;;;27.23;;
72924;SDS011;61070;50.794;7.054;2023-01-29T00:56:15;60.53;;;27.73;;
72924;SDS011;61070;50.794;7.054;2023-01-29T00:58:41;55.80;;;25.35;;
72924;SDS011;61070;50.794;7.054;2023-01-29T01:01:06;65.57;;;27.45;;
72924;SDS011;61070;50.794;7.054;2023-01-29T01:03:31;57.08;;;26.15;;
72924;SDS011;61070;50.794;7.054;2023-01-29T01:06:03;59.97;;;27.80;;
72924;SDS011;61070;50.794;7.054;2023-01-29T01:08:29;65.15;;;28.55;;
72924;SDS011;61070;50.794;7.054;2023-01-29T01:11:13;55.78;;;27.38;;
72924;SDS011;61070;50.794;7.054;2023-01-29T01:13:39;51.72;;;26.55;;
72924;SDS011;61070;50.794;7.054;2023-01-29T01:16:08;57.50;;;25.92;;
72924;SDS011;61070;50.794;7.054;2023-01-29T01:18:34;53.97;;;25.98;;
72924;SDS011;61070;50.794;7.054;2023-01-29T01:21:00;55.35;;;25.88;;
72924;SDS011;61070;50.794;7.054;2023-01-29T01:23:25;63.28;;;27.20;;
72924;SDS011;61070;50.794;7.054;2023-01-29T01:25:51;54.65;;;24.92;;
72924;SDS011;61070;50.794;7.054;2023-01-29T01:28:17;50.28;;;24.45;;
72924;SDS011;61070;50.794;7.054;2023-01-29T01:30:42;58.03;;;26.60;;
72924;SDS011;61070;50.794;7.054;2023-01-29T01:33:07;60.63;;;24.75;;
72924;SDS011;61070;50.794;7.054;2023-01-29T01:35:32;50.90;;;26.27;;
72924;SDS011;61070;50.794;7.054;2023-01-29T01:37:58;50.63;;;25.58;;
72924;SDS011;61070;50.794;7.054;2023-01-29T01:40:24;46.20;;;23.83;;
72924;SDS011;61070;50.794;7.054;2023-01-29T01:42:51;50.13;;;24.45;;
72924;SDS011;61070;50.794;7.054;2023-01-29T01:45:27;49.70;;;24.27;;
72924;SDS011;61070;50.794;7.054;2023-01-29T01:50:44;51.30;;;25.02;;
72924;SDS011;61070;50.794;7.054;2023-01-29T01:53:18;45.55;;;23.38;;
72924;SDS011;61070;50.794;7.054;2023-01-29T01:55:53;43.03;;;23.35;;
72924;SDS011;61070;50.794;7.054;2023-01-29T01:59:06;53.15;;;24.15;;
72924;SDS011;61070;50.794;7.054;2023-01-29T02:01:14;53.28;;;24.58;;
72924;SDS011;61070;50.794;7.054;2023-01-29T02:03:49;49.15;;;24.30;;
72924;SDS011;61070;50.794;7.054;2023-01-29T02:06:38;53.10;;;23.88;;
72924;SDS011;61070;50.794;7.054;2023-01-29T02:12:19;55.85;;;24.35;;
72924;SDS011;61070;50.794;7.054;2023-01-29T02:14:45;55.90;;;25.45;;
72924;SDS011;61070;50.794;7.054;2023-01-29T02:17:12;50.40;;;24.50;;
72924;SDS011;61070;50.794;7.054;2023-01-29T02:25:08;58.20;;;24.45;;
72924;SDS011;61070;50.794;7.054;2023-01-29T02:30:40;51.40;;;23.88;;
72924;SDS011;61070;50.794;7.054;2023-01-29T02:35:47;51.53;;;23.95;;
72924;SDS011;61070;50.794;7.054;2023-01-29T02:46:29;59.60;;;25.20;;
72924;SDS011;61070;50.794;7.054;2023-01-29T02:51:50;46.42;;;22.27;;
72924;SDS011;61070;50.794;7.054;2023-01-29T02:54:32;47.78;;;22.40;;
72924;SDS011;61070;50.794;7.054;2023-01-29T02:57:00;45.20;;;21.75;;
72924;SDS011;61070;50.794;7.054;2023-01-29T02:59:38;49.63;;;22.58;;
72924;SDS011;61070;50.794;7.054;2023-01-29T03:02:08;44.67;;;23.42;;
72924;SDS011;61070;50.794;7.054;2023-01-29T03:04:39;47.33;;;23.42;;
72924;SDS011;61070;50.794;7.054;2023-01-29T03:07:12;48.50;;;22.15;;
72924;SDS011;61070;50.794;7.054;2023-01-29T03:10:02;47.75;;;22.35;;
72924;SDS011;61070;50.794;7.054;2023-01-29T03:12:33;41.50;;;20.50;;
72924;SDS011;61070;50.794;7.054;2023-01-29T03:15:15;45.28;;;22.50;;
72924;SDS011;61070;50.794;7.054;2023-01-29T03:18:03;47.88;;;21.75;;
72924;SDS011;61070;50.794;7.054;2023-01-29T03:20:33;50.58;;;23.95;;
72924;SDS011;61070;50.794;7.054;2023-01-29T03:23:03;46.97;;;21.88;;
72924;SDS011;61070;50.794;7.054;2023-01-29T03:25:34;46.20;;;20.77;;
72924;SDS011;61070;50.794;7.054;2023-01-29T03:28:21;47.05;;;20.58;;
72924;SDS011;61070;50.794;7.054;2023-01-29T03:31:08;46.45;;;22.17;;
72924;SDS011;61070;50.794;7.054;2023-01-29T03:33:59;45.65;;;21.80;;
72924;SDS011;61070;50.794;7.054;2023-01-29T03:36:31;48.45;;;23.65;;
72924;SDS011;61070;50.794;7.054;2023-01-29T03:39:09;46.83;;;21.70;;
72924;SDS011;61070;50.794;7.054;2023-01-29T03:44:21;41.92;;;20.65;;
72924;SDS011;61070;50.794;7.054;2023-01-29T03:47:06;48.78;;;22.45;;
72924;SDS011;61070;50.794;7.054;2023-01-29T03:49:44;46.15;;;20.80;;
72924;SDS011;61070;50.794;7.054;2023-01-29T03:52:32;43.67;;;20.52;;
72924;SDS011;61070;50.794;7.054;2023-01-29T04:00:12;47.00;;;20.95;;
72924;SDS011;61070;50.794;7.054;2023-01-29T04:05:24;49.47;;;21.88;;
72924;SDS011;61070;50.794;7.054;2023-01-29T04:07:56;39.30;;;20.75;;
72924;SDS011;61070;50.794;7.054;2023-01-29T04:10:28;48.60;;;22.55;;
72924;SDS011;61070;50.794;7.054;2023-01-29T04:13:00;49.47;;;22.85;;
72924;SDS011;61070;50.794;7.054;2023-01-29T04:15:29;47.35;;;21.65;;
72924;SDS011;61070;50.794;7.054;2023-01-29T04:18:00;49.42;;;22.08;;
72924;SDS011;61070;50.794;7.054;2023-01-29T04:20:26;44.90;;;21.50;;
72924;SDS011;61070;50.794;7.054;2023-01-29T04:22:51;43.97;;;21.83;;
72924;SDS011;61070;50.794;7.054;2023-01-29T04:25:21;44.33;;;20.85;;
72924;SDS011;61070;50.794;7.054;2023-01-29T04:43:43;43.13;;;20.00;;
72924;SDS011;61070;50.794;7.054;2023-01-29T04:46:25;39.72;;;19.50;;
72924;SDS011;61070;50.794;7.054;2023-01-29T04:49:17;45.40;;;22.15;;
72924;SDS011;61070;50.794;7.054;2023-01-29T04:57:49;49.75;;;20.67;;
72924;SDS011;61070;50.794;7.054;2023-01-29T05:00:23;46.35;;;21.60;;
72924;SDS011;61070;50.794;7.054;2023-01-29T05:05:18;43.72;;;20.77;;
72924;SDS011;61070;50.794;7.054;2023-01-29T05:07:44;44.95;;;22.35;;
72924;SDS011;61070;50.794;7.054;2023-01-29T05:10:10;46.22;;;21.08;;
72924;SDS011;61070;50.794;7.054;2023-01-29T05:12:38;45.88;;;21.08;;
72924;SDS011;61070;50.794;7.054;2023-01-29T05:15:08;44.45;;;21.13;;
72924;SDS011;61070;50.794;7.054;2023-01-29T05:17:38;47.03;;;20.33;;
72924;SDS011;61070;50.794;7.054;2023-01-29T05:20:04;43.88;;;19.73;;
72924;SDS011;61070;50.794;7.054;2023-01-29T05:22:30;50.22;;;21.50;;
72924;SDS011;61070;50.794;7.054;2023-01-29T05:24:56;48.10;;;21.35;;
72924;SDS011;61070;50.794;7.054;2023-01-29T05:27:22;47.85;;;23.10;;
72924;SDS011;61070;50.794;7.054;2023-01-29T05:30:12;53.17;;;22.75;;
72924;SDS011;61070;50.794;7.054;2023-01-29T05:32:38;52.47;;;22.58;;
72924;SDS011;61070;50.794;7.054;2023-01-29T05:35:03;54.70;;;23.42;;
72924;SDS011;61070;50.794;7.054;2023-01-29T05:37:29;44.58;;;21.50;;
72924;SDS011;61070;50.794;7.054;2023-01-29T05:39:55;55.25;;;23.88;;
72924;SDS011;61070;50.794;7.054;2023-01-29T05:42:20;55.08;;;24.10;;
72924;SDS011;61070;50.794;7.054;2023-01-29T05:44:45;50.42;;;24.10;;
72924;SDS011;61070;50.794;7.054;2023-01-29T05:47:11;56.53;;;23.67;;
72924;SDS011;61070;50.794;7.054;2023-01-29T05:49:36;53.25;;;23.15;;
72924;SDS011;61070;50.794;7.054;2023-01-29T05:52:01;59.03;;;24.92;;
72924;SDS011;61070;50.794;7.054;2023-01-29T05:54:27;54.80;;;23.73;;
72924;SDS011;61070;50.794;7.054;2023-01-29T05:56:52;49.72;;;22.85;;
72924;SDS011;61070;50.794;7.054;2023-01-29T05:59:17;51.70;;;23.73;;
72924;SDS011;61070;50.794;7.054;2023-01-29T06:01:43;48.50;;;22.17;;
72924;SDS011;61070;50.794;7.054;2023-01-29T06:04:08;51.97;;;23.65;;
72924;SDS011;61070;50.794;7.054;2023-01-29T06:06:33;55.28;;;25.50;;
72924;SDS011;61070;50.794;7.054;2023-01-29T06:08:58;54.58;;;22.92;;
72924;SDS011;61070;50.794;7.054;2023-01-29T06:11:24;64.47;;;25.48;;
72924;SDS011;61070;50.794;7.054;2023-01-29T06:13:49;55.75;;;23.45;;
72924;SDS011;61070;50.794;7.054;2023-01-29T06:16:14;52.92;;;22.67;;
72924;SDS011;61070;50.794;7.054;2023-01-29T06:18:40;53.38;;;24.88;;
72924;SDS011;61070;50.794;7.054;2023-01-29T06:21:07;56.55;;;25.08;;
72924;SDS011;61070;50.794;7.054;2023-01-29T06:23:34;64.35;;;27.30;;
72924;SDS011;61070;50.794;7.054;2023-01-29T06:26:01;54.70;;;24.50;;
72924;SDS011;61070;50.794;7.054;2023-01-29T06:28:30;62.35;;;25.83;;
72924;SDS011;61070;50.794;7.054;2023-01-29T06:31:03;60.08;;;26.65;;
72924;SDS011;61070;50.794;7.054;2023-01-29T06:33:30;59.40;;;24.38;;
72924;SDS011;61070;50.794;7.054;2023-01-29T06:35:56;65.07;;;27.05;;
72924;SDS011;61070;50.794;7.054;2023-01-29T06:40:51;54.88;;;24.77;;
72924;SDS011;61070;50.794;7.054;2023-01-29T06:43:17;57.90;;;24.80;;
72924;SDS011;61070;50.794;7.054;2023-01-29T06:45:48;59.38;;;25.38;;
72924;SDS011;61070;50.794;7.054;2023-01-29T06:48:16;61.38;;;26.55;;
72924;SDS011;61070;50.794;7.054;2023-01-29T06:50:41;62.90;;;26.50;;
72924;SDS011;61070;50.794;7.054;2023-01-29T06:53:07;64.80;;;27.02;;
72924;SDS011;61070;50.794;7.054;2023-01-29T06:55:32;61.15;;;25.67;;
72924;SDS011;61070;50.794;7.054;2023-01-29T06:57:58;66.60;;;28.70;;
72924;SDS011;61070;50.794;7.054;2023-01-29T07:00:23;62.95;;;25.75;;
72924;SDS011;61070;50.794;7.054;2023-01-29T07:02:49;75.70;;;27.98;;
72924;SDS011;61070;50.794;7.054;2023-01-29T07:05:14;72.05;;;25.90;;
72924;SDS011;61070;50.794;7.054;2023-01-29T07:07:39;67.78;;;26.92;;
72924;SDS011;61070;50.794;7.054;2023-01-29T07:10:08;57.08;;;26.17;;
72924;SDS011;61070;50.794;7.054;2023-01-29T07:12:33;55.78;;;25.52;;
72924;SDS011;61070;50.794;7.054;2023-01-29T07:14:59;56.03;;;25.20;;
72924;SDS011;61070;50.794;7.054;2023-01-29T07:17:24;72.10;;;27.02;;
72924;SDS011;61070;50.794;7.054;2023-01-29T07:19:49;58.38;;;25.27;;
72924;SDS011;61070;50.794;7.054;2023-01-29T07:22:15;63.72;;;26.70;;
72924;SDS011;61070;50.794;7.054;2023-01-29T07:24:40;59.03;;;25.73;;
72924;SDS011;61070;50.794;7.054;2023-01-29T07:27:06;62.03;;;25.90;;
72924;SDS011;61070;50.794;7.054;2023-01-29T07:29:31;59.28;;;27.15;;
72924;SDS011;61070;50.794;7.054;2023-01-29T07:31:57;59.65;;;28.20;;
72924;SDS011;61070;50.794;7.054;2023-01-29T07:34:22;64.57;;;26.45;;
72924;SDS011;61070;50.794;7.054;2023-01-29T07:36:47;65.30;;;27.27;;
72924;SDS011;61070;50.794;7.054;2023-01-29T07:39:12;68.30;;;28.75;;
72924;SDS011;61070;50.794;7.054;2023-01-29T07:41:38;69.20;;;28.27;;
72924;SDS011;61070;50.794;7.054;2023-01-29T07:44:03;68.35;;;28.80;;
72924;SDS011;61070;50.794;7.054;2023-01-29T07:46:29;60.40;;;26.58;;
72924;SDS011;61070;50.794;7.054;2023-01-29T07:48:54;65.75;;;28.13;;
72924;SDS011;61070;50.794;7.054;2023-01-29T07:51:19;64.25;;;27.75;;
72924;SDS011;61070;50.794;7.054;2023-01-29T07:53:45;69.90;;;30.08;;
72924;SDS011;61070;50.794;7.054;2023-01-29T07:56:11;69.03;;;28.25;;
72924;SDS011;61070;50.794;7.054;2023-01-29T07:58:36;64.05;;;26.63;;
72924;SDS011;61070;50.794;7.054;2023-01-29T08:01:07;64.50;;;29.10;;
72924;SDS011;61070;50.794;7.054;2023-01-29T08:03:32;71.70;;;28.77;;
72924;SDS011;61070;50.794;7.054;2023-01-29T08:05:58;74.80;;;31.15;;
72924;SDS011;61070;50.794;7.054;2023-01-29T08:08:23;69.82;;;29.85;;
72924;SDS011;61070;50.794;7.054;2023-01-29T08:10:49;73.78;;;31.20;;
72924;SDS011;61070;50.794;7.054;2023-01-29T08:13:15;74.32;;;30.65;;
72924;SDS011;61070;50.794;7.054;2023-01-29T08:15:43;73.43;;;30.35;;
72924;SDS011;61070;50.794;7.054;2023-01-29T08:18:09;84.53;;;33.83;;
72924;SDS011;61070;50.794;7.054;2023-01-29T08:20:34;86.47;;;34.05;;
72924;SDS011;61070;50.794;7.054;2023-01-29T08:23:00;76.57;;;32.67;;
72924;SDS011;61070;50.794;7.054;2023-01-29T08:25:28;73.82;;;32.15;;
72924;SDS011;61070;50.794;7.054;2023-01-29T08:27:57;77.07;;;32.25;;
72924;SDS011;61070;50.794;7.054;2023-01-29T08:30:27;90.70;;;36.88;;
72924;SDS011;61070;50.794;7.054;2023-01-29T08:32:53;78.90;;;31.95;;
72924;SDS011;61070;50.794;7.054;2023-01-29T08:35:19;76.35;;;33.35;;
72924;SDS011;61070;50.794;7.054;2023-01-29T08:37:51;92.20;;;37.00;;
72924;SDS011;61070;50.794;7.054;2023-01-29T08:40:18;84.28;;;35.60;;
72924;SDS011;61070;50.794;7.054;2023-01-29T08:42:43;70.32;;;32.28;;
72924;SDS011;61070;50.794;7.054;2023-01-29T08:45:08;67.00;;;30.58;;
72924;SDS011;61070;50.794;7.054;2023-01-29T08:47:34;83.35;;;31.90;;
72924;SDS011;61070;50.794;7.054;2023-01-29T08:49:59;69.53;;;30.58;;
72924;SDS011;61070;50.794;7.054;2023-01-29T08:52:25;73.13;;;30.88;;
72924;SDS011;61070;50.794;7.054;2023-01-29T08:54:50;77.00;;;31.80;;
72924;SDS011;61070;50.794;7.054;2023-01-29T08:57:15;74.78;;;31.45;;
72924;SDS011;61070;50.794;7.054;2023-01-29T08:59:40;72.32;;;31.25;;
72924;SDS011;61070;50.794;7.054;2023-01-29T09:02:06;70.82;;;30.60;;
72924;SDS011;61070;50.794;7.054;2023-01-29T09:04:31;70.28;;;31.25;;
72924;SDS011;61070;50.794;7.054;2023-01-29T09:06:56;76.70;;;33.13;;
72924;SDS011;61070;50.794;7.054;2023-01-29T09:09:21;78.18;;;32.15;;
72924;SDS011;61070;50.794;7.054;2023-01-29T09:11:47;68.32;;;29.13;;
72924;SDS011;61070;50.794;7.054;2023-01-29T09:14:12;75.70;;;31.48;;
72924;SDS011;61070;50.794;7.054;2023-01-29T09:16:38;68.78;;;30.25;;
72924;SDS011;61070;50.794;7.054;2023-01-29T09:19:03;65.50;;;28.83;;
72924;SDS011;61070;50.794;7.054;2023-01-29T09:21:29;70.68;;;31.08;;
72924;SDS011;61070;50.794;7.054;2023-01-29T09:23:54;63.72;;;28.08;;
72924;SDS011;61070;50.794;7.054;2023-01-29T09:26:19;70.97;;;31.48;;
72924;SDS011;61070;50.794;7.054;2023-01-29T09:28:44;69.93;;;30.50;;
72924;SDS011;61070;50.794;7.054;2023-01-29T09:31:10;77.55;;;31.55;;
72924;SDS011;61070;50.794;7.054;2023-01-29T09:33:35;74.65;;;30.88;;
72924;SDS011;61070;50.794;7.054;2023-01-29T09:36:01;73.00;;;30.02;;
72924;SDS011;61070;50.794;7.054;2023-01-29T09:38:27;74.95;;;31.52;;
72924;SDS011;61070;50.794;7.054;2023-01-29T09:41:08;72.25;;;30.08;;
72924;SDS011;61070;50.794;7.054;2023-01-29T09:43:58;72.93;;;30.25;;
72924;SDS011;61070;50.794;7.054;2023-01-29T09:51:40;70.00;;;31.20;;
72924;SDS011;61070;50.794;7.054;2023-01-29T09:54:11;66.70;;;30.10;;
72924;SDS011;61070;50.794;7.054;2023-01-29T09:56:44;67.43;;;30.25;;
72924;SDS011;61070;50.794;7.054;2023-01-29T09:59:10;66.35;;;29.75;;
72924;SDS011;61070;50.794;7.054;2023-01-29T10:01:48;64.22;;;28.98;;
72924;SDS011;61070;50.794;7.054;2023-01-29T10:04:30;66.25;;;29.35;;
72924;SDS011;61070;50.794;7.054;2023-01-29T10:15:12;64.43;;;29.20;;
72924;SDS011;61070;50.794;7.054;2023-01-29T10:20:43;64.00;;;26.48;;
72924;SDS011;61070;50.794;7.054;2023-01-29T10:23:14;63.15;;;29.17;;
72924;SDS011;61070;50.794;7.054;2023-01-29T10:25:56;62.53;;;27.98;;
72924;SDS011;61070;50.794;7.054;2023-01-29T10:28:24;62.55;;;26.25;;
72924;SDS011;61070;50.794;7.054;2023-01-29T10:33:46;57.53;;;27.02;;
72924;SDS011;61070;50.794;7.054;2023-01-29T10:36:18;67.70;;;28.70;;
72924;SDS011;61070;50.794;7.054;2023-01-29T10:38:50;63.45;;;27.00;;
72924;SDS011;61070;50.794;7.054;2023-01-29T10:41:41;59.78;;;27.55;;
72924;SDS011;61070;50.794;7.054;2023-01-29T10:47:16;63.78;;;28.80;;
72924;SDS011;61070;50.794;7.054;2023-01-29T11:00:51;53.03;;;26.20;;
72924;SDS011;61070;50.794;7.054;2023-01-29T11:03:23;62.95;;;27.70;;
72924;SDS011;61070;50.794;7.054;2023-01-29T11:08:40;57.00;;;26.42;;
72924;SDS011;61070;50.794;7.054;2023-01-29T11:11:14;61.13;;;27.48;;
72924;SDS011;61070;50.794;7.054;2023-01-29T11:13:43;57.53;;;28.67;;
72924;SDS011;61070;50.794;7.054;2023-01-29T11:16:12;54.15;;;24.50;;
72924;SDS011;61070;50.794;7.054;2023-01-29T11:18:51;64.05;;;28.42;;
72924;SDS011;61070;50.794;7.054;2023-01-29T11:21:18;56.10;;;27.23;;
72924;SDS011;61070;50.794;7.054;2023-01-29T11:23:44;58.97;;;26.02;;
72924;SDS011;61070;50.794;7.054;2023-01-29T11:26:10;61.83;;;29.67;;
72924;SDS011;61070;50.794;7.054;2023-01-29T11:28:38;54.85;;;25.85;;
72924;SDS011;61070;50.794;7.054;2023-01-29T11:31:24;59.90;;;27.23;;
72924;SDS011;61070;50.794;7.054;2023-01-29T11:33:53;59.13;;;27.00;;
72924;SDS011;61070;50.794;7.054;2023-01-29T11:39:09;65.13;;;27.38;;
72924;SDS011;61070;50.794;7.054;2023-01-29T11:41:43;59.70;;;27.80;;
72924;SDS011;61070;50.794;7.054;2023-01-29T11:49:49;58.28;;;26.33;;
72924;SDS011;61070;50.794;7.054;2023-01-29T11:52:22;56.72;;;25.23;;
72924;SDS011;61070;50.794;7.054;2023-01-29T11:54:51;54.50;;;25.20;;
72924;SDS011;61070;50.794;7.054;2023-01-29T11:57:22;58.35;;;25.48;;
72924;SDS011;61070;50.794;7.054;2023-01-29T11:59:51;56.58;;;25.70;;
72924;SDS011;61070;50.794;7.054;2023-01-29T12:04:56;50.67;;;25.88;;
72924;SDS011;61070;50.794;7.054;2023-01-29T12:07:25;39.67;;;18.88;;
72924;SDS011;61070;50.794;7.054;2023-01-29T12:09:51;53.15;;;26.23;;
72924;SDS011;61070;50.794;7.054;2023-01-29T12:12:32;54.55;;;25.75;;
72924;SDS011;61070;50.794;7.054;2023-01-29T12:15:03;58.50;;;26.08;;
72924;SDS011;61070;50.794;7.054;2023-01-29T12:17:35;55.20;;;25.80;;
72924;SDS011;61070;50.794;7.054;2023-01-29T12:20:22;50.63;;;25.15;;
72924;SDS011;61070;50.794;7.054;2023-01-29T12:22:56;51.70;;;25.23;;
72924;SDS011;61070;50.794;7.054;2023-01-29T12:25:35;50.83;;;25.38;;
72924;SDS011;61070;50.794;7.054;2023-01-29T12:28:09;52.53;;;26.10;;
72924;SDS011;61070;50.794;7.054;2023-01-29T12:30:45;53.20;;;26.85;;
72924;SDS011;61070;50.794;7.054;2023-01-29T12:36:23;46.45;;;22.85;;
72924;SDS011;61070;50.794;7.054;2023-01-29T12:38:52;56.30;;;25.65;;
72924;SDS011;61070;50.794;7.054;2023-01-29T12:41:23;51.90;;;26.23;;
72924;SDS011;61070;50.794;7.054;2023-01-29T12:43:55;55.90;;;25.08;;
72924;SDS011;61070;50.794;7.054;2023-01-29T12:46:31;50.30;;;25.02;;
72924;SDS011;61070;50.794;7.054;2023-01-29T12:49:03;51.60;;;24.63;;
72924;SDS011;61070;50.794;7.054;2023-01-29T12:51:41;47.72;;;24.17;;
72924;SDS011;61070;50.794;7.054;2023-01-29T12:54:15;51.40;;;24.42;;
72924;SDS011;61070;50.794;7.054;2023-01-29T12:56:46;46.38;;;24.30;;
72924;SDS011;61070;50.794;7.054;2023-01-29T13:04:45;52.58;;;24.77;;
72924;SDS011;61070;50.794;7.054;2023-01-29T13:07:19;48.60;;;24.98;;
72924;SDS011;61070;50.794;7.054;2023-01-29T13:09:49;54.63;;;26.40;;
72924;SDS011;61070;50.794;7.054;2023-01-29T13:12:19;49.00;;;24.27;;
72924;SDS011;61070;50.794;7.054;2023-01-29T13:14:48;48.08;;;23.13;;
72924;SDS011;61070;50.794;7.054;2023-01-29T13:17:21;50.15;;;23.10;;
72924;SDS011;61070;50.794;7.054;2023-01-29T13:19:52;53.53;;;25.02;;
72924;SDS011;61070;50.794;7.054;2023-01-29T13:22:22;49.60;;;25.38;;
72924;SDS011;61070;50.794;7.054;2023-01-29T13:24:50;53.47;;;24.00;;
72924;SDS011;61070;50.794;7.054;2023-01-29T13:27:26;48.40;;;23.38;;
72924;SDS011;61070;50.794;7.054;2023-01-29T13:29:54;42.15;;;21.02;;
72924;SDS011;61070;50.794;7.054;2023-01-29T13:32:24;47.40;;;22.23;;
72924;SDS011;61070;50.794;7.054;2023-01-29T13:37:26;44.35;;;20.40;;
72924;SDS011;61070;50.794;7.054;2023-01-29T13:39:55;43.97;;;20.45;;
72924;SDS011;61070;50.794;7.054;2023-01-29T13:45:00;37.25;;;18.60;;
72924;SDS011;61070;50.794;7.054;2023-01-29T13:47:29;37.15;;;17.00;;
72924;SDS011;61070;50.794;7.054;2023-01-29T13:52:34;29.92;;;13.30;;
72924;SDS011;61070;50.794;7.054;2023-01-29T13:55:06;42.35;;;19.27;;
72924;SDS011;61070;50.794;7.054;2023-01-29T14:02:44;38.30;;;17.98;;
72924;SDS011;61070;50.794;7.054;2023-01-29T14:07:53;34.92;;;13.80;;
72924;SDS011;61070;50.794;7.054;2023-01-29T14:10:20;49.28;;;17.88;;
72924;SDS011;61070;50.794;7.054;2023-01-29T14:13:24;63.47;;;26.35;;
72924;SDS011;61070;50.794;7.054;2023-01-29T14:15:36;41.13;;;15.93;;
72924;SDS011;61070;50.794;7.054;2023-01-29T14:18:13;30.17;;;13.73;;
72924;SDS011;61070;50.794;7.054;2023-01-29T14:23:34;26.98;;;12.18;;
72924;SDS011;61070;50.794;7.054;2023-01-29T14:26:01;25.17;;;11.10;;
72924;SDS011;61070;50.794;7.054;2023-01-29T14:28:29;23.67;;;11.38;;
72924;SDS011;61070;50.794;7.054;2023-01-29T14:30:57;23.35;;;10.23;;
72924;SDS011;61070;50.794;7.054;2023-01-29T14:35:56;20.45;;;9.70;;
72924;SDS011;61070;50.794;7.054;2023-01-29T14:38:22;18.95;;;9.65;;
72924;SDS011;61070;50.794;7.054;2023-01-29T14:40:50;23.20;;;10.48;;
72924;SDS011;61070;50.794;7.054;2023-01-29T14:43:26;32.60;;;14.50;;
72924;SDS011;61070;50.794;7.054;2023-01-29T14:45:51;38.60;;;16.00;;
72924;SDS011;61070;50.794;7.054;2023-01-29T14:51:13;30.83;;;13.48;;
72924;SDS011;61070;50.794;7.054;2023-01-29T14:53:45;38.47;;;13.30;;
72924;SDS011;61070;50.794;7.054;2023-01-29T14:56:33;29.13;;;12.70;;
72924;SDS011;61070;50.794;7.054;2023-01-29T14:59:21;21.77;;;9.68;;
72924;SDS011;61070;50.794;7.054;2023-01-29T15:01:55;15.25;;;7.45;;
72924;SDS011;61070;50.794;7.054;2023-01-29T15:04:25;20.23;;;8.85;;
72924;SDS011;61070;50.794;7.054;2023-01-29T15:07:04;20.23;;;8.98;;
72924;SDS011;61070;50.794;7.054;2023-01-29T15:09:50;19.85;;;7.97;;
72924;SDS011;61070;50.794;7.054;2023-01-29T15:17:54;18.42;;;8.23;;
72924;SDS011;61070;50.794;7.054;2023-01-29T15:20:27;17.85;;;8.02;;
72924;SDS011;61070;50.794;7.054;2023-01-29T15:23:01;14.23;;;7.40;;
72924;SDS011;61070;50.794;7.054;2023-01-29T15:25:30;17.98;;;8.48;;
72924;SDS011;61070;50.794;7.054;2023-01-29T15:27:59;16.95;;;7.78;;
72924;SDS011;61070;50.794;7.054;2023-01-29T15:30:28;18.85;;;8.50;;
72924;SDS011;61070;50.794;7.054;2023-01-29T15:32:57;17.67;;;7.60;;
72924;SDS011;61070;50.794;7.054;2023-01-29T15:38:04;22.92;;;10.05;;
72924;SDS011;61070;50.794;7.054;2023-01-29T15:40:38;36.67;;;14.73;;
72924;SDS011;61070;50.794;7.054;2023-01-29T15:43:11;76.15;;;28.70;;
72924;SDS011;61070;50.794;7.054;2023-01-29T15:45:44;33.08;;;13.60;;
72924;SDS011;61070;50.794;7.054;2023-01-29T15:48:12;24.35;;;11.23;;
72924;SDS011;61070;50.794;7.054;2023-01-29T15:53:08;19.83;;;9.95;;
72924;SDS011;61070;50.794;7.054;2023-01-29T15:55:45;26.73;;;11.50;;
72924;SDS011;61070;50.794;7.054;2023-01-29T15:58:14;38.15;;;16.65;;
72924;SDS011;61070;50.794;7.054;2023-01-29T16:00:50;28.25;;;13.30;;
72924;SDS011;61070;50.794;7.054;2023-01-29T16:03:19;30.27;;;12.65;;
72924;SDS011;61070;50.794;7.054;2023-01-29T16:05:47;31.95;;;13.45;;
72924;SDS011;61070;50.794;7.054;2023-01-29T16:08:14;37.72;;;15.52;;
72924;SDS011;61070;50.794;7.054;2023-01-29T16:10:40;31.98;;;14.63;;
72924;SDS011;61070;50.794;7.054;2023-01-29T16:13:19;43.50;;;17.23;;
72924;SDS011;61070;50.794;7.054;2023-01-29T16:18:23;37.60;;;16.90;;
72924;SDS011;61070;50.794;7.054;2023-01-29T16:20:53;40.53;;;17.15;;
72924;SDS011;61070;50.794;7.054;2023-01-29T16:23:23;34.25;;;15.40;;
72924;SDS011;61070;50.794;7.054;2023-01-29T16:25:52;37.90;;;17.30;;
72924;SDS011;61070;50.794;7.054;2023-01-29T16:28:18;33.05;;;14.85;;
72924;SDS011;61070;50.794;7.054;2023-01-29T16:30:44;34.03;;;15.25;;
72924;SDS011;61070;50.794;7.054;2023-01-29T16:33:13;38.70;;;16.50;;
72924;SDS011;61070;50.794;7.054;2023-01-29T16:35:41;43.92;;;17.90;;
72924;SDS011;61070;50.794;7.054;2023-01-29T16:38:15;34.88;;;15.75;;
72924;SDS011;61070;50.794;7.054;2023-01-29T16:41:03;39.35;;;17.60;;
72924;SDS011;61070;50.794;7.054;2023-01-29T16:46:00;38.80;;;16.30;;
72924;SDS011;61070;50.794;7.054;2023-01-29T16:48:31;39.20;;;17.95;;
72924;SDS011;61070;50.794;7.054;2023-01-29T16:54:13;44.35;;;17.92;;
72924;SDS011;61070;50.794;7.054;2023-01-29T16:56:43;36.97;;;16.10;;
72924;SDS011;61070;50.794;7.054;2023-01-29T16:59:14;43.47;;;18.00;;
72924;SDS011;61070;50.794;7.054;2023-01-29T17:01:44;44.75;;;18.50;;
72924;SDS011;61070;50.794;7.054;2023-01-29T17:04:12;43.70;;;18.75;;
72924;SDS011;61070;50.794;7.054;2023-01-29T17:06:41;42.15;;;19.33;;
72924;SDS011;61070;50.794;7.054;2023-01-29T17:12:05;43.30;;;18.50;;
72924;SDS011;61070;50.794;7.054;2023-01-29T17:14:39;41.83;;;16.52;;
72924;SDS011;61070;50.794;7.054;2023-01-29T17:17:13;42.53;;;18.48;;
72924;SDS011;61070;50.794;7.054;2023-01-29T17:19:40;40.17;;;16.52;;
72924;SDS011;61070;50.794;7.054;2023-01-29T17:22:05;40.35;;;16.80;;
72924;SDS011;61070;50.794;7.054;2023-01-29T17:24:32;39.47;;;17.50;;
72924;SDS011;61070;50.794;7.054;2023-01-29T17:26:59;39.55;;;16.70;;